CheckWX is a tool to help pilots better visualize weather data.  It is not intended as a substitute for an official pre-flight weather briefing.

22:04:38 UTC

LKTB METAR
Brno-Tuřany Airport
Brno, Czech Republic
Current

35 mins ago

LKTB 212130Z 18004KT 9999 OVC047 05/04 Q1023 NOSIG
Observed
Feb-21 @ 21:30 UTC
Wind
  • 180° at 4 KTS
Visibility
10,000+ meters
Flight Rules
VFR
Cloud Levels
  • Overcast at 4,700' AGL
Temperature
C / 41°F
Dewpoint
C / 39°F
Humidity
93%
Altimeter
30.21" Hg
Pressure
1022.92 hPa
Previous

1 hour ago

LKTB 212100Z 04002KT 9999 FEW034 OVC045 06/04 Q1023 NOSIG
Observed
Feb-21 @ 21:00 UTC
Wind
  • 040° at 2 KTS
Visibility
10,000+ meters
Flight Rules
VFR
Cloud Levels
  • Few at 3,400' AGL
  • Overcast at 4,500' AGL
Temperature
C / 43°F
Dewpoint
C / 39°F
Humidity
87%
Altimeter
30.21" Hg
Pressure
1022.92 hPa
Previous

2 hours ago

LKTB 212030Z VRB01KT 9999 OVC048 06/04 Q1024 NOSIG
Observed
Feb-21 @ 20:30 UTC
Wind
  • Variable at 1 KTS
Visibility
10,000+ meters
Flight Rules
VFR
Cloud Levels
  • Overcast at 4,800' AGL
Temperature
C / 43°F
Dewpoint
C / 39°F
Humidity
87%
Altimeter
30.24" Hg
Pressure
1023.92 hPa